createdAt,value
2018-08-13T00:00:34.916Z,1010.33
2018-08-13T00:01:35.313Z,1010.29
2018-08-13T00:02:35.105Z,1010.3
2018-08-13T00:03:34.869Z,1010.25
2018-08-13T00:04:35.036Z,1010.21
2018-08-13T00:05:35.027Z,1010.19
2018-08-13T00:06:35.102Z,1010.14
2018-08-13T00:07:35.715Z,1010.12
2018-08-13T00:08:34.958Z,1010.11
2018-08-13T00:09:34.976Z,1010.14
2018-08-13T00:10:35.166Z,1010.15
2018-08-13T00:11:35.189Z,1010.15
2018-08-13T00:12:35.207Z,1010.1
2018-08-13T00:13:34.953Z,1010.15
2018-08-13T00:14:35.502Z,1010.1
2018-08-13T00:15:35.192Z,1010.06
2018-08-13T00:16:34.987Z,1010.06
2018-08-13T00:17:35.264Z,1010.1
2018-08-13T00:18:34.943Z,1010.09
2018-08-13T00:19:35.038Z,1010.09
2018-08-13T00:20:34.841Z,1010.08
2018-08-13T00:21:35.160Z,1010.05
2018-08-13T00:22:35.110Z,1010.03
2018-08-13T00:23:35.013Z,1010.04
2018-08-13T00:24:35.155Z,1010
2018-08-13T00:25:35.134Z,1010
2018-08-13T00:26:34.915Z,1010.01
2018-08-13T00:27:35.008Z,1010.04
2018-08-13T00:28:35.153Z,1010.01
2018-08-13T00:29:34.910Z,1010.03
2018-08-13T00:30:35.140Z,1010.05
2018-08-13T00:31:35.189Z,1010.03
2018-08-13T00:32:35.119Z,1010.03
2018-08-13T00:33:34.890Z,1010.05
2018-08-13T00:34:35.126Z,1010.07
2018-08-13T00:35:35.195Z,1010.03
2018-08-13T00:36:35.191Z,1010.05
2018-08-13T00:37:35.197Z,1010.05
2018-08-13T00:38:34.854Z,1010.05
2018-08-13T00:39:35.005Z,1010.01
2018-08-13T00:40:35.015Z,1009.97
2018-08-13T00:41:35.182Z,1009.95
2018-08-13T00:42:35.084Z,1009.95
2018-08-13T00:43:34.988Z,1009.94
2018-08-13T00:44:35.079Z,1009.97
2018-08-13T00:45:34.945Z,1009.92
2018-08-13T00:46:34.980Z,1009.95
2018-08-13T00:47:34.914Z,1009.94
2018-08-13T00:48:35.034Z,1009.92
2018-08-13T00:49:35.149Z,1009.91
2018-08-13T00:50:34.900Z,1009.93
2018-08-13T00:51:35.213Z,1009.9
2018-08-13T00:52:35.072Z,1009.93
2018-08-13T00:53:34.917Z,1009.87
2018-08-13T00:54:35.146Z,1009.81
2018-08-13T00:55:35.206Z,1009.84
2018-08-13T00:56:34.868Z,1009.81
2018-08-13T00:57:35.171Z,1009.8
2018-08-13T00:58:35.153Z,1009.79
2018-08-13T00:59:35.130Z,1009.81
2018-08-13T01:00:34.985Z,1009.8
2018-08-13T01:01:35.079Z,1009.79
2018-08-13T01:02:34.904Z,1009.83
2018-08-13T01:03:35.063Z,1009.79
2018-08-13T01:04:35.037Z,1009.79
2018-08-13T01:05:35.040Z,1009.78
2018-08-13T01:06:35.001Z,1009.76
2018-08-13T01:07:34.869Z,1009.78
2018-08-13T01:08:35.080Z,1009.79
2018-08-13T01:09:34.864Z,1009.76
2018-08-13T01:10:35.045Z,1009.77
2018-08-13T01:11:35.080Z,1009.74
2018-08-13T01:12:34.950Z,1009.73
2018-08-13T01:13:35.081Z,1009.73
2018-08-13T01:14:35.059Z,1009.67
2018-08-13T01:15:35.011Z,1009.66
2018-08-13T01:16:35.281Z,1009.62
2018-08-13T01:17:35.196Z,1009.61
2018-08-13T01:18:35.134Z,1009.62
2018-08-13T01:19:35.135Z,1009.64
2018-08-13T01:20:35.080Z,1009.63
2018-08-13T01:21:35.153Z,1009.63
2018-08-13T01:22:35.326Z,1009.67
2018-08-13T01:23:34.974Z,1009.67
2018-08-13T01:24:35.204Z,1009.64
2018-08-13T01:25:35.059Z,1009.68
2018-08-13T01:26:35.265Z,1009.69
2018-08-13T01:27:34.997Z,1009.67
2018-08-13T01:28:35.274Z,1009.63
2018-08-13T01:29:35.148Z,1009.67
2018-08-13T01:30:34.983Z,1009.6
2018-08-13T01:31:35.157Z,1009.63
2018-08-13T01:32:35.077Z,1009.62
2018-08-13T01:33:35.137Z,1009.63
2018-08-13T01:34:35.110Z,1009.55
2018-08-13T01:35:35.194Z,1009.57
2018-08-13T01:36:34.979Z,1009.55
2018-08-13T01:37:34.986Z,1009.55
2018-08-13T01:38:35.078Z,1009.53
2018-08-13T01:39:35.132Z,1009.57
2018-08-13T01:40:35.099Z,1009.55
2018-08-13T01:41:34.878Z,1009.55
2018-08-13T01:42:34.967Z,1009.52
2018-08-13T01:43:35.102Z,1009.49
2018-08-13T01:44:35.026Z,1009.52
2018-08-13T01:45:35.212Z,1009.48
2018-08-13T01:46:35.138Z,1009.51
2018-08-13T01:47:35.167Z,1009.52
2018-08-13T01:48:35.014Z,1009.54
2018-08-13T01:49:35.078Z,1009.47
2018-08-13T01:50:34.839Z,1009.47
2018-08-13T01:51:35.144Z,1009.44
2018-08-13T01:52:34.981Z,1009.47
2018-08-13T01:53:35.104Z,1009.48
2018-08-13T01:54:35.174Z,1009.45
2018-08-13T01:55:35.016Z,1009.43
2018-08-13T01:56:35.219Z,1009.42
2018-08-13T01:57:35.007Z,1009.48
2018-08-13T01:58:35.230Z,1009.47
2018-08-13T01:59:34.839Z,1009.44
2018-08-13T02:00:34.963Z,1009.41
2018-08-13T02:01:35.216Z,1009.39
2018-08-13T02:02:34.932Z,1009.41
2018-08-13T02:03:35.107Z,1009.4
2018-08-13T02:04:35.215Z,1009.44
2018-08-13T02:05:35.137Z,1009.41
2018-08-13T02:06:34.870Z,1009.39
2018-08-13T02:07:35.073Z,1009.43
2018-08-13T02:08:34.848Z,1009.38
2018-08-13T02:09:35.107Z,1009.37
2018-08-13T02:10:35.207Z,1009.3
2018-08-13T02:11:34.899Z,1009.27
2018-08-13T02:12:35.145Z,1009.28
2018-08-13T02:13:35.107Z,1009.24
2018-08-13T02:14:35.101Z,1009.25
2018-08-13T02:15:35.091Z,1009.25
2018-08-13T02:16:35.187Z,1009.25
2018-08-13T02:17:34.840Z,1009.21
2018-08-13T02:18:34.976Z,1009.21
2018-08-13T02:19:34.882Z,1009.2
2018-08-13T02:20:35.116Z,1009.16
2018-08-13T02:21:35.119Z,1009.15
2018-08-13T02:22:34.992Z,1009.15
2018-08-13T02:23:34.987Z,1009.16
2018-08-13T02:24:35.006Z,1009.11
2018-08-13T02:25:34.926Z,1009.05
2018-08-13T02:26:34.980Z,1009.06
2018-08-13T02:27:35.156Z,1009.03
2018-08-13T02:28:35.310Z,1009.02
2018-08-13T02:29:34.969Z,1009.04
2018-08-13T02:30:35.308Z,1009.04
2018-08-13T02:31:35.056Z,1009.05
2018-08-13T02:32:34.934Z,1009.05
2018-08-13T02:33:35.148Z,1009.03
2018-08-13T02:34:34.985Z,1009.03
2018-08-13T02:35:34.945Z,1009.01
2018-08-13T02:36:35.178Z,1009.08
2018-08-13T02:37:35.007Z,1009.08
2018-08-13T02:38:35.410Z,1009.08
2018-08-13T02:39:34.884Z,1009.11
2018-08-13T02:40:35.093Z,1009.09
2018-08-13T02:41:35.097Z,1009.06
2018-08-13T02:42:35.127Z,1009.07
2018-08-13T02:43:35.064Z,1009.08
2018-08-13T02:44:35.036Z,1009.04
2018-08-13T02:45:34.913Z,1009.01
2018-08-13T02:46:35.001Z,1008.99
2018-08-13T02:47:35.160Z,1008.93
2018-08-13T02:48:35.048Z,1008.92
2018-08-13T02:49:34.927Z,1008.87
2018-08-13T02:50:35.009Z,1008.87
2018-08-13T02:51:34.968Z,1008.84
2018-08-13T02:52:34.898Z,1008.83
2018-08-13T02:53:35.251Z,1008.87
2018-08-13T02:54:35.023Z,1008.9
2018-08-13T02:55:34.841Z,1008.9
2018-08-13T02:56:34.990Z,1008.88
2018-08-13T02:57:35.152Z,1008.9
2018-08-13T02:58:35.096Z,1008.93
2018-08-13T02:59:35.039Z,1008.94
2018-08-13T03:00:35.156Z,1008.89
2018-08-13T03:01:34.889Z,1008.93
2018-08-13T03:02:34.863Z,1008.87
2018-08-13T03:03:34.944Z,1008.84
2018-08-13T03:04:35.002Z,1008.78
2018-08-13T03:05:34.907Z,1008.75
2018-08-13T03:06:34.985Z,1008.76
2018-08-13T03:07:34.936Z,1008.77
2018-08-13T03:08:35.040Z,1008.77
2018-08-13T03:09:35.090Z,1008.81
2018-08-13T03:10:34.839Z,1008.79
2018-08-13T03:11:34.867Z,1008.78
2018-08-13T03:12:34.977Z,1008.79
2018-08-13T03:13:34.852Z,1008.72
2018-08-13T03:14:35.002Z,1008.72
2018-08-13T03:15:35.008Z,1008.71
2018-08-13T03:16:34.915Z,1008.7
2018-08-13T03:17:34.941Z,1008.71
2018-08-13T03:18:34.961Z,1008.74
2018-08-13T03:19:35.054Z,1008.78
2018-08-13T03:20:35.134Z,1008.79
2018-08-13T03:21:35.197Z,1008.81
2018-08-13T03:22:34.950Z,1008.81
2018-08-13T03:23:34.994Z,1008.86
2018-08-13T03:24:35.062Z,1008.87
2018-08-13T03:25:34.977Z,1008.83
2018-08-13T03:26:35.002Z,1008.81
2018-08-13T03:27:35.363Z,1008.8
2018-08-13T03:28:35.222Z,1008.8
2018-08-13T03:29:35.036Z,1008.76
2018-08-13T03:30:35.144Z,1008.76
2018-08-13T03:31:35.147Z,1008.71
2018-08-13T03:32:35.224Z,1008.72
2018-08-13T03:33:35.395Z,1008.66
2018-08-13T03:34:34.929Z,1008.73
2018-08-13T03:35:35.255Z,1008.73
2018-08-13T03:36:35.310Z,1008.73
2018-08-13T03:37:34.996Z,1008.72
2018-08-13T03:38:34.945Z,1008.71
2018-08-13T03:39:35.133Z,1008.64
2018-08-13T03:40:35.173Z,1008.59
2018-08-13T03:41:34.921Z,1008.56
2018-08-13T03:42:35.193Z,1008.54
2018-08-13T03:43:34.978Z,1008.5
2018-08-13T03:44:34.983Z,1008.48
2018-08-13T03:45:34.889Z,1008.45
2018-08-13T03:46:35.184Z,1008.45
2018-08-13T03:47:34.969Z,1008.48
2018-08-13T03:48:35.023Z,1008.48
2018-08-13T03:49:34.852Z,1008.48
2018-08-13T03:50:35.388Z,1008.52
2018-08-13T03:51:35.173Z,1008.52
2018-08-13T03:52:35.123Z,1008.5
2018-08-13T03:53:35.123Z,1008.47
2018-08-13T03:54:35.001Z,1008.49
2018-08-13T03:55:35.147Z,1008.47
2018-08-13T03:56:34.940Z,1008.46
2018-08-13T03:57:34.838Z,1008.5
2018-08-13T03:58:35.117Z,1008.5
2018-08-13T03:59:35.076Z,1008.55
2018-08-13T04:00:34.811Z,1008.55
2018-08-13T04:01:35.050Z,1008.56
2018-08-13T04:02:35.096Z,1008.55
2018-08-13T04:03:35.097Z,1008.53
2018-08-13T04:04:35.041Z,1008.49
2018-08-13T04:05:35.033Z,1008.49
2018-08-13T04:06:35.110Z,1008.51
2018-08-13T04:07:35.195Z,1008.52
2018-08-13T04:08:35.015Z,1008.55
2018-08-13T04:09:34.907Z,1008.54
2018-08-13T04:10:35.016Z,1008.53
2018-08-13T04:11:35.153Z,1008.54
2018-08-13T04:12:35.051Z,1008.59
2018-08-13T04:13:35.247Z,1008.58
2018-08-13T04:14:34.869Z,1008.59
2018-08-13T04:15:35.353Z,1008.64
2018-08-13T04:16:35.175Z,1008.64
2018-08-13T04:17:35.047Z,1008.68
2018-08-13T04:18:35.045Z,1008.7
2018-08-13T04:19:34.947Z,1008.69
2018-08-13T04:20:35.085Z,1008.73
2018-08-13T04:21:34.982Z,1008.74
2018-08-13T04:22:35.006Z,1008.68
2018-08-13T04:23:35.006Z,1008.67
2018-08-13T04:24:35.001Z,1008.63
2018-08-13T04:25:35.092Z,1008.61
2018-08-13T04:26:34.939Z,1008.59
2018-08-13T04:27:34.913Z,1008.6
2018-08-13T04:28:34.883Z,1008.63
2018-08-13T04:29:35.009Z,1008.64
2018-08-13T04:30:34.917Z,1008.66
2018-08-13T04:31:34.992Z,1008.69
2018-08-13T04:32:35.121Z,1008.64
2018-08-13T04:33:34.879Z,1008.64
2018-08-13T04:34:35.053Z,1008.67
2018-08-13T04:35:35.078Z,1008.68
2018-08-13T04:36:35.010Z,1008.59
2018-08-13T04:37:35.041Z,1008.48
2018-08-13T04:38:35.018Z,1008.42
2018-08-13T04:39:35.014Z,1008.42
2018-08-13T04:40:34.824Z,1008.39
2018-08-13T04:41:35.094Z,1008.25
2018-08-13T04:42:34.974Z,1008.15
2018-08-13T04:43:34.948Z,1008.01
2018-08-13T04:44:35.053Z,1008.08
2018-08-13T04:45:34.870Z,1008.18
2018-08-13T04:46:34.980Z,1008.26
2018-08-13T04:47:34.930Z,1008.35
2018-08-13T04:48:35.069Z,1008.34
2018-08-13T04:49:35.015Z,1008.24
2018-08-13T04:50:34.950Z,1008.26
2018-08-13T04:51:35.035Z,1008.28
2018-08-13T04:52:34.991Z,1008.29
2018-08-13T04:53:35.015Z,1008.33
2018-08-13T04:54:34.879Z,1008.25
2018-08-13T04:55:35.029Z,1008.24
2018-08-13T04:56:34.885Z,1008.23
2018-08-13T04:57:35.168Z,1008.27
2018-08-13T04:58:35.092Z,1008.22
2018-08-13T04:59:35.071Z,1008.22
2018-08-13T05:00:35.087Z,1008.22
2018-08-13T05:01:34.860Z,1008.12
2018-08-13T05:02:35.025Z,1008.2
2018-08-13T05:03:34.912Z,1008.18
2018-08-13T05:04:34.949Z,1008.21
2018-08-13T05:05:35.094Z,1008.23
2018-08-13T05:06:34.828Z,1008.25
2018-08-13T05:07:34.835Z,1008.21
2018-08-13T05:08:35.092Z,1008.24
2018-08-13T05:09:34.984Z,1008.28
2018-08-13T05:10:35.047Z,1008.25
2018-08-13T05:11:35.015Z,1008.32
2018-08-13T05:12:34.959Z,1008.37
2018-08-13T05:13:34.932Z,1008.37
2018-08-13T05:14:34.880Z,1008.4
2018-08-13T05:15:34.963Z,1008.36
2018-08-13T05:16:35.168Z,1008.42
2018-08-13T05:17:35.071Z,1008.53
2018-08-13T05:18:34.973Z,1008.61
2018-08-13T05:19:35.221Z,1008.62
2018-08-13T05:20:35.123Z,1008.6
2018-08-13T05:21:34.926Z,1008.62
2018-08-13T05:22:35.145Z,1008.62
2018-08-13T05:23:34.973Z,1008.62
2018-08-13T05:24:34.984Z,1008.65
2018-08-13T05:25:35.066Z,1008.66
2018-08-13T05:26:35.183Z,1008.72
2018-08-13T05:27:35.056Z,1008.73
2018-08-13T05:28:35.006Z,1008.71
2018-08-13T05:29:35.034Z,1008.77
2018-08-13T05:30:34.909Z,1008.78
2018-08-13T05:31:34.955Z,1008.78
2018-08-13T05:32:34.932Z,1008.83
2018-08-13T05:33:35.176Z,1008.86
2018-08-13T05:34:34.877Z,1008.89
2018-08-13T05:35:35.182Z,1008.95
2018-08-13T05:36:34.995Z,1008.98
2018-08-13T05:37:35.083Z,1009
2018-08-13T05:38:34.986Z,1008.95
2018-08-13T05:39:34.852Z,1008.94
2018-08-13T05:40:35.139Z,1008.9
2018-08-13T05:41:34.895Z,1008.91
2018-08-13T05:42:35.114Z,1008.96
2018-08-13T05:43:35.110Z,1008.96
2018-08-13T05:44:34.862Z,1009.02
2018-08-13T05:45:35.029Z,1009.07
2018-08-13T05:46:35.172Z,1009.12
2018-08-13T05:47:35.017Z,1009.21
2018-08-13T05:48:34.915Z,1009.22
2018-08-13T05:49:34.994Z,1009.3
2018-08-13T05:50:34.811Z,1009.32
2018-08-13T05:51:34.896Z,1009.34
2018-08-13T05:52:35.056Z,1009.39
2018-08-13T05:53:34.920Z,1009.33
2018-08-13T05:54:34.984Z,1009.43
2018-08-13T05:55:35.111Z,1009.55
2018-08-13T05:56:34.939Z,1009.59
2018-08-13T05:57:35.029Z,1009.69
2018-08-13T05:58:34.829Z,1009.78
2018-08-13T05:59:34.883Z,1009.7
2018-08-13T06:00:34.958Z,1009.78
2018-08-13T06:01:35.012Z,1010.04
2018-08-13T06:02:35.018Z,1010.19
2018-08-13T06:03:35.066Z,1010.28
2018-08-13T06:04:35.064Z,1010.39
2018-08-13T06:05:35.030Z,1010.42
2018-08-13T06:06:35.020Z,1010.43
2018-08-13T06:07:34.922Z,1010.36
2018-08-13T06:08:35.070Z,1010.4
2018-08-13T06:09:34.989Z,1010.28
2018-08-13T06:10:34.972Z,1010.32
2018-08-13T06:11:35.249Z,1010.31
2018-08-13T06:12:34.955Z,1010.35
2018-08-13T06:13:35.132Z,1010.33
2018-08-13T06:14:34.862Z,1010.39
2018-08-13T06:15:34.860Z,1010.41
2018-08-13T06:16:34.870Z,1010.36
2018-08-13T06:17:34.940Z,1010.23
2018-08-13T06:18:34.942Z,1010.31
2018-08-13T06:19:34.961Z,1010.37
2018-08-13T06:20:34.880Z,1010.42
2018-08-13T06:21:35.072Z,1010.37
2018-08-13T06:22:34.843Z,1010.42
2018-08-13T06:23:35.045Z,1010.42
2018-08-13T06:24:35.047Z,1010.39
2018-08-13T06:25:34.940Z,1010.33
2018-08-13T06:26:34.857Z,1010.25
2018-08-13T06:27:34.813Z,1010.3
2018-08-13T06:28:35.037Z,1010.26
2018-08-13T06:29:34.992Z,1010.23
2018-08-13T06:30:35.070Z,1010.27
2018-08-13T06:31:34.833Z,1010.11
2018-08-13T06:32:34.918Z,1010.25
2018-08-13T06:33:35.173Z,1010.18
2018-08-13T06:34:34.890Z,1010.21
2018-08-13T06:35:34.949Z,1010.19
2018-08-13T06:36:35.050Z,1010.28
2018-08-13T06:37:34.980Z,1010.24
2018-08-13T06:38:35.051Z,1010.26
2018-08-13T06:39:34.977Z,1010.3
2018-08-13T06:40:34.891Z,1010.31
2018-08-13T06:41:35.083Z,1010.32
2018-08-13T06:42:35.092Z,1010.3
2018-08-13T06:43:34.875Z,1010.31
2018-08-13T06:44:34.972Z,1010.28
2018-08-13T06:45:34.970Z,1010.33
2018-08-13T06:46:35.127Z,1010.29
2018-08-13T06:47:35.019Z,1010.33
2018-08-13T06:48:35.028Z,1010.3
2018-08-13T06:49:35.090Z,1010.39
2018-08-13T06:50:35.088Z,1010.37
2018-08-13T06:51:35.027Z,1010.36
2018-08-13T06:52:35.176Z,1010.32
2018-08-13T06:53:34.851Z,1010.36
2018-08-13T06:54:34.972Z,1010.36
2018-08-13T06:55:34.908Z,1010.36
2018-08-13T06:56:35.098Z,1010.36
2018-08-13T06:57:35.228Z,1010.38
2018-08-13T06:58:34.927Z,1010.46
2018-08-13T06:59:35.158Z,1010.52
2018-08-13T07:00:34.893Z,1010.61
2018-08-13T07:01:35.140Z,1010.67
2018-08-13T07:02:34.810Z,1010.67
2018-08-13T07:03:35.033Z,1010.69
2018-08-13T07:04:34.922Z,1010.77
2018-08-13T07:05:35.059Z,1010.73
2018-08-13T07:06:34.921Z,1010.66
2018-08-13T07:07:34.982Z,1010.67
2018-08-13T07:08:34.871Z,1010.69
2018-08-13T07:09:35.135Z,1010.71
2018-08-13T07:10:34.951Z,1010.7
2018-08-13T07:11:34.783Z,1010.66
2018-08-13T07:12:34.867Z,1010.63
2018-08-13T07:13:35.094Z,1010.64
2018-08-13T07:14:35.148Z,1010.65
2018-08-13T07:15:35.200Z,1010.71
2018-08-13T07:16:34.861Z,1010.67
2018-08-13T07:17:35.043Z,1010.68
2018-08-13T07:18:35.007Z,1010.73
2018-08-13T07:19:35.005Z,1010.71
2018-08-13T07:20:34.785Z,1010.72
2018-08-13T07:21:35.476Z,1010.73
2018-08-13T07:22:34.997Z,1010.76
2018-08-13T07:23:35.053Z,1010.74
2018-08-13T07:24:35.116Z,1010.75
2018-08-13T07:25:34.869Z,1010.79
2018-08-13T07:26:35.044Z,1010.8
2018-08-13T07:27:34.846Z,1010.79
2018-08-13T07:28:35.080Z,1010.76
2018-08-13T07:29:34.817Z,1010.75
2018-08-13T07:30:35.009Z,1010.76
2018-08-13T07:31:34.983Z,1010.72
2018-08-13T07:32:35.029Z,1010.75
2018-08-13T07:33:35.025Z,1010.75
2018-08-13T07:34:35.208Z,1010.72
2018-08-13T07:35:34.901Z,1010.75
2018-08-13T07:36:34.897Z,1010.74
2018-08-13T07:37:35.151Z,1010.75
2018-08-13T07:38:34.881Z,1010.8
2018-08-13T07:39:35.153Z,1010.81
2018-08-13T07:40:34.856Z,1010.86
2018-08-13T07:41:35.007Z,1010.89
2018-08-13T07:42:35.068Z,1010.93
2018-08-13T07:43:35.037Z,1010.92
2018-08-13T07:44:34.924Z,1010.96
2018-08-13T07:45:35.613Z,1010.98
2018-08-13T07:46:35.144Z,1011.07
2018-08-13T07:47:34.854Z,1011.08
2018-08-13T07:48:34.960Z,1011.11
2018-08-13T07:49:34.969Z,1011.14
2018-08-13T07:50:34.944Z,1011.13
2018-08-13T07:51:35.108Z,1011.15
2018-08-13T07:52:35.024Z,1011.13
2018-08-13T07:53:34.865Z,1011.22
2018-08-13T07:54:35.080Z,1011.17
2018-08-13T07:55:34.928Z,1011.22
2018-08-13T07:56:34.884Z,1011.25
2018-08-13T07:57:34.877Z,1011.32
2018-08-13T07:58:35.046Z,1011.39
2018-08-13T07:59:35.090Z,1011.38
2018-08-13T08:00:34.863Z,1011.43
2018-08-13T08:01:35.002Z,1011.44
2018-08-13T08:02:34.845Z,1011.5
2018-08-13T08:03:34.877Z,1011.55
2018-08-13T08:04:34.889Z,1011.55
2018-08-13T08:05:34.867Z,1011.55
2018-08-13T08:06:34.916Z,1011.55
2018-08-13T08:07:35.138Z,1011.6
2018-08-13T08:08:35.073Z,1011.6
2018-08-13T08:09:34.898Z,1011.59
2018-08-13T08:10:35.109Z,1011.58
2018-08-13T08:11:37.879Z,1011.5
2018-08-13T08:12:35.086Z,1011.53
2018-08-13T08:13:34.985Z,1011.51
2018-08-13T08:14:34.991Z,1011.5
2018-08-13T08:15:35.209Z,1011.48
2018-08-13T08:16:34.905Z,1011.51
2018-08-13T08:17:35.181Z,1011.49
2018-08-13T08:18:35.169Z,1011.47
2018-08-13T08:19:34.910Z,1011.45
2018-08-13T08:20:35.115Z,1011.4
2018-08-13T08:21:34.910Z,1011.37
2018-08-13T08:22:35.107Z,1011.34
2018-08-13T08:23:34.801Z,1011.36
2018-08-13T08:24:34.929Z,1011.34
2018-08-13T08:25:35.112Z,1011.32
2018-08-13T08:26:34.959Z,1011.24
2018-08-13T08:27:35.087Z,1011.19
2018-08-13T08:28:34.836Z,1011.2
2018-08-13T08:29:34.893Z,1011.2
2018-08-13T08:30:35.173Z,1011.17
2018-08-13T08:31:35.050Z,1011.14
2018-08-13T08:32:34.891Z,1011.12
2018-08-13T08:33:34.831Z,1011.18
2018-08-13T08:34:35.042Z,1011.15
2018-08-13T08:35:34.855Z,1011.16
2018-08-13T08:36:34.948Z,1011.09
2018-08-13T08:37:34.896Z,1011.04
2018-08-13T08:38:35.093Z,1011.08
2018-08-13T08:39:34.772Z,1011.06
2018-08-13T08:40:35.225Z,1011.07
2018-08-13T08:41:35.018Z,1011.1
2018-08-13T08:42:34.984Z,1011.14
2018-08-13T08:43:34.757Z,1011.13
2018-08-13T08:44:35.152Z,1011.17
2018-08-13T08:45:35.219Z,1011.21
2018-08-13T08:46:34.888Z,1011.19
2018-08-13T08:47:35.115Z,1011.17
2018-08-13T08:48:34.914Z,1011.18
2018-08-13T08:49:35.321Z,1011.23
2018-08-13T08:50:34.812Z,1011.21
2018-08-13T08:51:35.060Z,1011.23
2018-08-13T08:52:34.951Z,1011.19
2018-08-13T08:53:35.200Z,1011.22
2018-08-13T08:54:35.118Z,1011.22
2018-08-13T08:55:35.078Z,1011.25
2018-08-13T08:56:35.046Z,1011.32
2018-08-13T08:57:34.975Z,1011.34
2018-08-13T08:58:35.044Z,1011.33
2018-08-13T08:59:34.910Z,1011.36
2018-08-13T09:00:35.071Z,1011.32
2018-08-13T09:01:34.857Z,1011.33
2018-08-13T09:02:35.002Z,1011.34
2018-08-13T09:03:35.163Z,1011.28
2018-08-13T09:04:34.919Z,1011.35
2018-08-13T09:05:35.132Z,1011.38
2018-08-13T09:06:35.102Z,1011.4
2018-08-13T09:07:34.974Z,1011.4
2018-08-13T09:08:34.866Z,1011.38
2018-08-13T09:09:35.146Z,1011.38
2018-08-13T09:10:34.880Z,1011.38
2018-08-13T09:11:35.015Z,1011.36
2018-08-13T09:12:34.984Z,1011.43
2018-08-13T09:13:35.157Z,1011.39
2018-08-13T09:14:35.087Z,1011.4
2018-08-13T09:15:34.957Z,1011.38
2018-08-13T09:16:34.932Z,1011.38
2018-08-13T09:17:34.874Z,1011.36
2018-08-13T09:18:34.816Z,1011.42
2018-08-13T09:19:35.040Z,1011.45
2018-08-13T09:20:34.994Z,1011.49
2018-08-13T09:21:35.106Z,1011.53
2018-08-13T09:22:35.009Z,1011.57
2018-08-13T09:23:34.986Z,1011.65
2018-08-13T09:24:35.005Z,1011.66
2018-08-13T09:25:35.307Z,1011.71
2018-08-13T09:26:34.859Z,1011.81
2018-08-13T09:27:35.014Z,1011.84
2018-08-13T09:28:34.915Z,1011.87
2018-08-13T09:29:34.983Z,1011.84
2018-08-13T09:30:34.788Z,1011.82
2018-08-13T09:31:34.931Z,1011.81
2018-08-13T09:32:34.783Z,1011.84
2018-08-13T09:33:35.033Z,1011.88
2018-08-13T09:34:34.998Z,1011.89
2018-08-13T09:35:35.102Z,1011.94
2018-08-13T09:36:34.947Z,1011.91
2018-08-13T09:37:34.843Z,1011.89
2018-08-13T09:38:34.994Z,1011.89
2018-08-13T09:39:34.969Z,1011.91
2018-08-13T09:40:34.885Z,1011.92
2018-08-13T09:41:34.902Z,1011.9
2018-08-13T09:42:34.988Z,1011.93
2018-08-13T09:43:34.884Z,1011.9
2018-08-13T09:44:34.986Z,1011.95
2018-08-13T09:45:35.036Z,1011.95
2018-08-13T09:46:34.852Z,1011.92
2018-08-13T09:47:35.137Z,1011.91
2018-08-13T09:48:35.120Z,1011.97
2018-08-13T09:49:34.941Z,1011.91
2018-08-13T09:50:35.034Z,1011.94
2018-08-13T09:51:34.899Z,1011.95
2018-08-13T09:52:34.730Z,1011.96
2018-08-13T09:53:34.965Z,1011.97
2018-08-13T09:54:34.901Z,1011.95
2018-08-13T09:55:34.799Z,1011.96
2018-08-13T09:56:34.883Z,1011.94
2018-08-13T09:57:35.156Z,1011.92
2018-08-13T09:58:34.875Z,1011.92
2018-08-13T09:59:34.985Z,1011.9
2018-08-13T10:00:35.126Z,1011.87
2018-08-13T10:01:34.898Z,1011.88
2018-08-13T10:02:34.891Z,1011.83
2018-08-13T10:03:35.027Z,1011.81
2018-08-13T10:04:34.916Z,1011.79
2018-08-13T10:05:34.831Z,1011.8
2018-08-13T10:06:34.853Z,1011.74
2018-08-13T10:07:34.930Z,1011.74
2018-08-13T10:08:35.062Z,1011.75
2018-08-13T10:09:35.094Z,1011.74
2018-08-13T10:10:35.070Z,1011.7
2018-08-13T10:11:34.810Z,1011.69
2018-08-13T10:12:34.911Z,1011.69
2018-08-13T10:13:34.863Z,1011.66
2018-08-13T10:14:34.981Z,1011.66
2018-08-13T10:15:34.751Z,1011.68
2018-08-13T10:16:35.108Z,1011.66
2018-08-13T10:17:35.187Z,1011.7
2018-08-13T10:18:35.681Z,1011.71
2018-08-13T10:19:34.968Z,1011.74
2018-08-13T10:20:34.977Z,1011.78
2018-08-13T10:21:35.040Z,1011.79
2018-08-13T10:22:36.695Z,1011.82
2018-08-13T10:23:35.065Z,1011.77
2018-08-13T10:24:34.832Z,1011.79
2018-08-13T10:25:35.110Z,1011.79
2018-08-13T10:26:34.904Z,1011.8
2018-08-13T10:27:34.914Z,1011.78
2018-08-13T10:28:35.074Z,1011.7
2018-08-13T10:29:34.936Z,1011.66
2018-08-13T10:30:34.780Z,1011.65
2018-08-13T10:31:35.734Z,1011.63
2018-08-13T10:32:34.960Z,1011.65
2018-08-13T10:33:34.872Z,1011.64
2018-08-13T10:34:35.121Z,1011.61
2018-08-13T10:35:35.632Z,1011.58
2018-08-13T10:36:35.517Z,1011.57
2018-08-13T10:37:34.974Z,1011.56
2018-08-13T10:38:35.159Z,1011.56
2018-08-13T10:39:34.846Z,1011.56
2018-08-13T10:40:34.871Z,1011.58
2018-08-13T10:41:35.097Z,1011.63
2018-08-13T10:42:34.805Z,1011.6
2018-08-13T10:43:35.299Z,1011.64
2018-08-13T10:44:35.178Z,1011.6
2018-08-13T10:45:34.970Z,1011.5
2018-08-13T10:46:35.053Z,1011.48
2018-08-13T10:47:34.947Z,1011.46
2018-08-13T10:48:34.914Z,1011.38
2018-08-13T10:49:34.883Z,1011.42
2018-08-13T10:50:35.062Z,1011.34
2018-08-13T10:51:34.998Z,1011.29
2018-08-13T10:52:34.988Z,1011.28
2018-08-13T10:53:34.788Z,1011.29
2018-08-13T10:54:34.976Z,1011.31
2018-08-13T10:55:34.817Z,1011.31
2018-08-13T10:56:34.928Z,1011.28
2018-08-13T10:57:34.774Z,1011.27
2018-08-13T10:58:34.956Z,1011.2
2018-08-13T10:59:34.905Z,1011.16
2018-08-13T11:00:34.790Z,1011.12
2018-08-13T11:01:34.965Z,1011.17
2018-08-13T11:02:34.988Z,1011.16
2018-08-13T11:03:35.084Z,1011.17
2018-08-13T11:04:34.945Z,1011.24
2018-08-13T11:05:35.011Z,1011.28
2018-08-13T11:06:34.851Z,1011.27
2018-08-13T11:07:34.912Z,1011.27
2018-08-13T11:08:34.843Z,1011.31
2018-08-13T11:09:34.811Z,1011.29
2018-08-13T11:10:35.068Z,1011.31
2018-08-13T11:11:34.961Z,1011.29
2018-08-13T11:12:34.884Z,1011.27
2018-08-13T11:13:35.442Z,1011.23
2018-08-13T11:14:34.873Z,1011.23
2018-08-13T11:15:34.857Z,1011.22
2018-08-13T11:16:34.864Z,1011.18
2018-08-13T11:17:34.745Z,1011.21
2018-08-13T11:18:34.804Z,1011.21
2018-08-13T11:19:35.053Z,1011.2
2018-08-13T11:20:34.892Z,1011.17
2018-08-13T11:21:35.009Z,1011.17
2018-08-13T11:22:34.979Z,1011.17
2018-08-13T11:23:34.960Z,1011.18
2018-08-13T11:24:34.833Z,1011.17
2018-08-13T11:25:34.879Z,1011.14
2018-08-13T11:26:35.126Z,1011.14
2018-08-13T11:27:34.679Z,1011.14
2018-08-13T11:28:35.534Z,1011.17
2018-08-13T11:29:34.932Z,1011.18
2018-08-13T11:30:34.925Z,1011.18
2018-08-13T11:31:35.111Z,1011.12
2018-08-13T11:32:35.012Z,1011.14
2018-08-13T11:33:34.799Z,1011.17
2018-08-13T11:34:35.122Z,1011.14
2018-08-13T11:35:35.067Z,1011.16
2018-08-13T11:36:34.959Z,1011.17
2018-08-13T11:37:35.052Z,1011.19
2018-08-13T11:38:34.884Z,1011.21
2018-08-13T11:39:34.784Z,1011.22
2018-08-13T11:40:34.994Z,1011.24
2018-08-13T11:41:34.972Z,1011.21
2018-08-13T11:42:34.902Z,1011.23
2018-08-13T11:43:34.902Z,1011.22
2018-08-13T11:44:34.894Z,1011.21
2018-08-13T11:45:35.001Z,1011.22
2018-08-13T11:46:34.905Z,1011.25
2018-08-13T11:47:35.224Z,1011.25
2018-08-13T11:48:34.916Z,1011.22
2018-08-13T11:49:35.153Z,1011.17
2018-08-13T11:50:34.871Z,1011.18
2018-08-13T11:51:34.928Z,1011.17
2018-08-13T11:52:35.130Z,1011.16
2018-08-13T11:53:35.387Z,1011.13
2018-08-13T11:54:34.874Z,1011.15
2018-08-13T11:55:34.908Z,1011.1
2018-08-13T11:56:34.967Z,1011.05
2018-08-13T11:57:34.850Z,1011.08
2018-08-13T11:58:34.926Z,1011.07
2018-08-13T11:59:34.959Z,1011
2018-08-13T12:00:34.923Z,1011
2018-08-13T12:01:34.836Z,1011.06
2018-08-13T12:02:34.868Z,1011.04
2018-08-13T12:03:34.878Z,1011.06
2018-08-13T12:04:34.937Z,1011.06
2018-08-13T12:05:34.913Z,1011.05
2018-08-13T12:06:34.716Z,1011.02
2018-08-13T12:07:35.110Z,1011
2018-08-13T12:08:34.940Z,1011.01